createdAt,value
2023-04-19T00:00:42.261Z,11.14
2023-04-19T00:03:11.581Z,11.17
2023-04-19T00:05:39.580Z,11.14
2023-04-19T00:08:07.466Z,11.19
2023-04-19T00:10:37.794Z,11.18
2023-04-19T00:13:05.612Z,11.20
2023-04-19T00:15:35.057Z,11.18
2023-04-19T00:18:02.880Z,11.18
2023-04-19T00:20:30.741Z,11.26
2023-04-19T00:22:59.180Z,11.17
2023-04-19T00:25:28.469Z,11.15
2023-04-19T00:27:57.726Z,11.06
2023-04-19T00:30:25.531Z,11.27
2023-04-19T00:32:54.507Z,11.35
2023-04-19T00:35:22.497Z,11.09
2023-04-19T00:37:50.331Z,11.15
2023-04-19T00:40:18.366Z,11.23
2023-04-19T00:42:46.150Z,11.18
2023-04-19T00:45:15.347Z,11.21
2023-04-19T00:47:43.574Z,11.27
2023-04-19T00:50:14.032Z,11.31
2023-04-19T00:52:42.206Z,11.33
2023-04-19T00:55:10.452Z,11.24
2023-04-19T00:57:39.077Z,11.24
2023-04-19T01:00:10.056Z,11.36
2023-04-19T01:02:39.401Z,11.43
2023-04-19T01:05:08.014Z,11.38
2023-04-19T01:07:35.821Z,11.40
2023-04-19T01:10:04.378Z,11.32
2023-04-19T01:12:32.241Z,11.36
2023-04-19T01:15:00.065Z,11.42
2023-04-19T01:17:29.009Z,11.55
2023-04-19T01:20:02.316Z,11.41
2023-04-19T01:22:32.955Z,11.44
2023-04-19T01:25:00.892Z,11.32
2023-04-19T01:27:30.263Z,11.55
2023-04-19T01:29:59.019Z,11.53
2023-04-19T01:32:27.997Z,11.37
2023-04-19T01:34:57.422Z,11.30
2023-04-19T01:37:25.166Z,11.51
2023-04-19T01:39:55.005Z,11.33
2023-04-19T01:42:23.256Z,11.45
2023-04-19T01:44:51.085Z,11.41
2023-04-19T01:47:21.074Z,11.45
2023-04-19T01:49:48.822Z,11.77
2023-04-19T01:52:17.061Z,11.56
2023-04-19T01:54:44.796Z,11.47
2023-04-19T01:57:16.451Z,11.57
2023-04-19T01:59:44.325Z,11.45
2023-04-19T02:02:13.368Z,11.36
2023-04-19T02:04:41.274Z,11.43
2023-04-19T02:07:09.100Z,11.24
2023-04-19T02:09:37.651Z,11.24
2023-04-19T02:12:06.156Z,11.15
2023-04-19T02:14:36.505Z,11.12
2023-04-19T02:17:04.447Z,11.04
2023-04-19T02:19:32.551Z,11.22
2023-04-19T02:22:00.334Z,11.09
2023-04-19T02:24:28.357Z,11.06
2023-04-19T02:26:56.118Z,10.85
2023-04-19T02:29:24.095Z,10.84
2023-04-19T02:31:53.582Z,10.97
2023-04-19T02:34:21.415Z,10.90
2023-04-19T02:36:49.435Z,10.91
2023-04-19T02:39:18.285Z,10.92
2023-04-19T02:41:46.072Z,10.81
2023-04-19T02:44:14.120Z,10.65
2023-04-19T02:46:50.047Z,10.72
2023-04-19T02:49:19.362Z,10.66
2023-04-19T02:51:47.359Z,10.66
2023-04-19T02:54:15.997Z,11.03
2023-04-19T02:56:46.056Z,10.82
2023-04-19T02:59:13.860Z,10.80
2023-04-19T03:01:41.900Z,11.01
2023-04-19T03:04:09.899Z,10.83
2023-04-19T03:06:39.270Z,10.93
2023-04-19T03:09:07.006Z,10.90
2023-04-19T03:11:35.672Z,10.97
2023-04-19T03:14:04.131Z,11.30
2023-04-19T03:16:32.404Z,11.08
2023-04-19T03:19:00.270Z,11.19
2023-04-19T03:21:32.299Z,10.92
2023-04-19T03:24:02.109Z,11.18
2023-04-19T03:26:30.520Z,11.20
2023-04-19T03:28:59.217Z,11.19
2023-04-19T03:31:38.592Z,11.03
2023-04-19T03:34:07.287Z,11.19
2023-04-19T03:36:40.773Z,11.05
2023-04-19T03:39:10.420Z,11.04
2023-04-19T03:41:41.889Z,11.01
2023-04-19T03:44:36.265Z,11.13
2023-04-19T03:47:06.378Z,11.10
2023-04-19T03:49:41.274Z,11.10
2023-04-19T03:52:09.172Z,11.05
2023-04-19T03:54:38.449Z,11.31
2023-04-19T03:57:10.412Z,11.17
2023-04-19T03:59:40.994Z,11.17
2023-04-19T04:02:10.404Z,11.01
2023-04-19T04:04:38.448Z,11.22
2023-04-19T04:07:07.023Z,11.04
2023-04-19T04:09:35.129Z,10.97
2023-04-19T04:12:05.928Z,11.05
2023-04-19T04:14:34.294Z,11.06
2023-04-19T04:17:02.760Z,11.15
2023-04-19T04:19:32.210Z,11.20
2023-04-19T04:22:01.284Z,11.04
2023-04-19T04:24:32.929Z,11.06
2023-04-19T04:27:21.635Z,11.10
2023-04-19T04:29:51.526Z,10.82
2023-04-19T04:32:23.678Z,10.88
2023-04-19T04:34:56.063Z,10.75
2023-04-19T04:37:35.128Z,10.64
2023-04-19T04:40:05.111Z,10.60
2023-04-19T04:42:38.141Z,10.69
2023-04-19T04:45:08.279Z,10.63
2023-04-19T04:47:40.620Z,10.46
2023-04-19T04:50:12.869Z,10.74
2023-04-19T04:52:40.703Z,10.46
2023-04-19T04:55:16.607Z,10.44
2023-04-19T04:57:46.968Z,10.45
2023-04-19T05:00:24.322Z,10.30
2023-04-19T05:03:02.162Z,10.34
2023-04-19T05:05:31.578Z,10.40
2023-04-19T05:07:59.346Z,10.43
2023-04-19T05:10:27.289Z,10.50
2023-04-19T05:12:56.558Z,10.35
2023-04-19T05:15:25.389Z,10.40
2023-04-19T05:17:56.001Z,10.43
2023-04-19T05:20:24.108Z,10.07
2023-04-19T05:23:00.637Z,10.24
2023-04-19T05:25:28.678Z,10.20
2023-04-19T05:27:58.963Z,10.16
2023-04-19T05:30:30.967Z,10.29
2023-04-19T05:32:59.062Z,10.30
2023-04-19T05:35:27.525Z,10.49
2023-04-19T05:37:56.040Z,10.44
2023-04-19T05:40:25.269Z,10.41
2023-04-19T05:42:53.153Z,10.78
2023-04-19T05:45:22.967Z,10.65
2023-04-19T05:47:51.008Z,10.97
2023-04-19T05:50:40.714Z,11.06
2023-04-19T05:53:34.614Z,11.14
2023-04-19T05:56:02.878Z,11.43
2023-04-19T05:58:30.856Z,11.10
2023-04-19T06:01:00.130Z,11.06
2023-04-19T06:03:31.146Z,11.22
2023-04-19T06:06:01.583Z,11.12
2023-04-19T06:08:29.585Z,10.88
2023-04-19T06:11:02.172Z,10.42
2023-04-19T06:13:36.012Z,10.37
2023-04-19T06:16:05.639Z,10.39
2023-04-19T06:18:34.252Z,10.30
2023-04-19T06:21:02.169Z,10.13
2023-04-19T06:23:29.977Z,10.23
2023-04-19T06:25:57.858Z,10.04
2023-04-19T06:28:26.636Z,10.12
2023-04-19T06:30:54.470Z,9.95
2023-04-19T06:33:23.968Z,10.11
2023-04-19T06:35:51.753Z,9.91
2023-04-19T06:38:19.563Z,9.85
2023-04-19T06:40:47.684Z,9.72
2023-04-19T06:43:15.740Z,9.78
2023-04-19T06:45:44.125Z,9.97
2023-04-19T06:48:12.076Z,10.07
2023-04-19T06:50:42.797Z,9.83
2023-04-19T06:53:10.554Z,9.97
2023-04-19T06:55:38.838Z,10.16
2023-04-19T06:58:10.247Z,10.24
2023-04-19T07:00:38.119Z,10.42
2023-04-19T07:03:06.232Z,10.60
2023-04-19T07:05:35.177Z,10.68
2023-04-19T07:08:04.541Z,10.82
2023-04-19T07:10:32.288Z,10.86
2023-04-19T07:13:00.229Z,10.85
2023-04-19T07:15:28.012Z,11.31
2023-04-19T07:17:55.874Z,11.06
2023-04-19T07:20:23.928Z,11.35
2023-04-19T07:22:51.871Z,11.56
2023-04-19T07:25:21.103Z,11.87
2023-04-19T07:27:49.287Z,11.98
2023-04-19T07:30:17.383Z,11.61
2023-04-19T07:32:46.284Z,11.82
2023-04-19T07:35:14.385Z,11.80
2023-04-19T07:37:43.231Z,11.86
2023-04-19T07:40:12.038Z,11.37
2023-04-19T07:42:41.184Z,11.50
2023-04-19T07:45:10.137Z,11.67
2023-04-19T07:47:37.936Z,11.83
2023-04-19T07:50:07.635Z,11.77
2023-04-19T07:52:35.567Z,11.76
2023-04-19T07:55:03.286Z,11.88
2023-04-19T07:57:31.759Z,11.92
2023-04-19T08:00:02.210Z,11.85
2023-04-19T08:02:30.394Z,11.67
2023-04-19T08:04:58.890Z,11.83
2023-04-19T08:07:26.759Z,11.88
2023-04-19T08:09:54.608Z,11.95
2023-04-19T08:12:34.522Z,12.19
2023-04-19T08:15:32.893Z,11.75
2023-04-19T08:17:57.464Z,12.03
2023-04-19T08:20:27.564Z,11.64
2023-04-19T08:22:55.616Z,11.61
2023-04-19T08:25:26.731Z,11.94
2023-04-19T08:27:54.495Z,12.04
2023-04-19T08:30:24.314Z,12.33
2023-04-19T08:32:53.137Z,12.50
2023-04-19T08:35:23.007Z,12.49
2023-04-19T08:37:51.120Z,12.72
2023-04-19T08:40:19.386Z,13.02
2023-04-19T08:42:47.281Z,13.07
2023-04-19T08:45:27.657Z,13.05
2023-04-19T08:48:01.802Z,13.07
2023-04-19T08:50:36.071Z,13.27
2023-04-19T08:53:24.097Z,12.69
2023-04-19T08:56:08.584Z,13.24
2023-04-19T08:59:00.503Z,12.98
2023-04-19T09:01:34.630Z,13.29
2023-04-19T09:04:16.861Z,13.29
2023-04-19T09:06:49.526Z,12.97
2023-04-19T09:11:50.215Z,13.13
2023-04-19T09:14:20.681Z,13.24
2023-04-19T09:16:51.844Z,13.13
2023-04-19T09:19:25.263Z,13.20
2023-04-19T09:21:55.069Z,12.94
2023-04-19T09:27:12.095Z,12.92
2023-04-19T09:29:40.246Z,12.55
2023-04-19T09:32:08.106Z,12.94
2023-04-19T09:34:37.623Z,13.33
2023-04-19T09:37:32.417Z,12.91
2023-04-19T09:40:22.946Z,13.07
2023-04-19T09:48:03.070Z,13.59
2023-04-19T09:50:33.806Z,13.49
2023-04-19T09:53:07.634Z,13.31
2023-04-19T09:55:48.912Z,13.40
2023-04-19T09:58:29.365Z,13.21
2023-04-19T10:01:14.136Z,13.38
2023-04-19T10:03:45.707Z,13.64
2023-04-19T10:06:32.159Z,13.72
2023-04-19T10:09:06.460Z,13.72
2023-04-19T10:11:40.070Z,13.56
2023-04-19T10:14:09.772Z,13.21
2023-04-19T10:16:39.114Z,13.40
2023-04-19T10:19:10.690Z,13.01
2023-04-19T10:21:42.376Z,12.68
2023-04-19T10:24:10.688Z,13.05
2023-04-19T10:27:08.801Z,13.06
2023-04-19T10:29:55.925Z,13.63
2023-04-19T10:32:24.797Z,13.44
2023-04-19T10:34:54.664Z,12.99
2023-04-19T10:37:27.636Z,13.38
2023-04-19T10:39:56.165Z,13.62
2023-04-19T10:42:23.898Z,13.56
2023-04-19T10:45:25.404Z,13.74
2023-04-19T10:47:53.886Z,13.70
2023-04-19T10:50:25.164Z,13.30
2023-04-19T10:52:54.362Z,13.69
2023-04-19T10:55:22.369Z,13.89
2023-04-19T10:58:04.487Z,13.38
2023-04-19T11:00:36.289Z,13.67
2023-04-19T11:03:50.037Z,13.50
2023-04-19T11:06:20.182Z,13.64
2023-04-19T11:08:49.587Z,14.27
2023-04-19T11:11:17.533Z,14.21
2023-04-19T11:13:45.786Z,13.53
2023-04-19T11:16:14.637Z,13.93
2023-04-19T11:18:42.870Z,13.76
2023-04-19T11:21:14.602Z,14.02
2023-04-19T11:23:42.597Z,13.84
2023-04-19T11:26:12.973Z,14.16
2023-04-19T11:28:40.868Z,14.35
2023-04-19T11:31:09.356Z,14.40
2023-04-19T11:33:38.266Z,14.08
2023-04-19T11:36:13.037Z,14.32
2023-04-19T11:38:41.030Z,13.96
2023-04-19T11:41:08.789Z,14.31
2023-04-19T11:43:38.547Z,14.44
2023-04-19T11:46:07.511Z,14.53
2023-04-19T11:48:35.940Z,14.63
2023-04-19T11:51:04.343Z,14.62
2023-04-19T11:53:33.799Z,14.84
2023-04-19T11:56:06.490Z,14.92
2023-04-19T11:58:38.031Z,14.81
2023-04-19T12:01:08.973Z,15.00
2023-04-19T12:03:41.793Z,14.83
2023-04-19T12:06:13.577Z,15.45
2023-04-19T12:08:45.184Z,15.72
2023-04-19T12:11:13.437Z,15.88
2023-04-19T12:13:42.096Z,15.60
2023-04-19T12:16:12.085Z,15.66
2023-04-19T12:18:49.028Z,15.50
2023-04-19T12:21:27.766Z,15.55
2023-04-19T12:23:59.393Z,15.59
2023-04-19T12:26:28.412Z,15.09
2023-04-19T12:28:58.301Z,15.21
2023-04-19T12:31:28.082Z,15.15
2023-04-19T12:33:56.048Z,15.00
2023-04-19T12:36:24.037Z,15.38
2023-04-19T12:38:52.006Z,15.68
2023-04-19T12:41:19.934Z,15.50
2023-04-19T12:43:47.717Z,15.34
2023-04-19T12:46:15.797Z,15.39
2023-04-19T12:48:45.158Z,15.47
2023-04-19T12:51:13.017Z,15.57
2023-04-19T12:53:42.661Z,15.20
2023-04-19T12:56:12.323Z,15.46
2023-04-19T12:58:40.129Z,15.49
2023-04-19T13:01:08.196Z,15.12
2023-04-19T13:03:37.508Z,15.80
2023-04-19T13:06:07.919Z,15.73
2023-04-19T13:08:44.860Z,15.50
2023-04-19T13:11:15.076Z,15.51
2023-04-19T13:13:42.964Z,15.29
2023-04-19T13:16:11.307Z,14.91
2023-04-19T13:18:39.557Z,15.09
2023-04-19T13:21:08.942Z,14.76
2023-04-19T13:23:36.876Z,15.09
2023-04-19T13:26:04.817Z,14.84
2023-04-19T13:28:35.725Z,14.95
2023-04-19T13:31:04.744Z,14.91
2023-04-19T13:33:32.974Z,14.92
2023-04-19T13:36:01.179Z,14.88
2023-04-19T13:38:30.731Z,15.00
2023-04-19T13:40:58.618Z,14.80
2023-04-19T13:43:26.812Z,15.21
2023-04-19T13:45:54.812Z,15.02
2023-04-19T13:48:22.663Z,15.20
2023-04-19T13:50:52.412Z,15.14
2023-04-19T13:53:20.213Z,15.34
2023-04-19T13:55:49.514Z,15.28
2023-04-19T13:58:17.358Z,15.42
2023-04-19T14:00:45.428Z,14.91
2023-04-19T14:03:13.894Z,15.25
2023-04-19T14:05:41.837Z,14.65
2023-04-19T14:08:09.789Z,15.02
2023-04-19T14:10:38.141Z,14.67
2023-04-19T14:13:07.539Z,15.07
2023-04-19T14:15:35.515Z,15.40
2023-04-19T14:18:03.918Z,15.19
2023-04-19T14:20:32.235Z,15.19
2023-04-19T14:23:00.452Z,15.08
2023-04-19T14:25:28.379Z,15.03
2023-04-19T14:27:56.223Z,15.41
2023-04-19T14:30:26.671Z,15.18
2023-04-19T14:32:55.622Z,15.19
2023-04-19T14:35:24.048Z,15.39
2023-04-19T14:37:51.885Z,15.09
2023-04-19T14:40:20.631Z,15.33
2023-04-19T14:42:48.417Z,15.15
2023-04-19T14:45:16.485Z,15.11
2023-04-19T14:47:45.711Z,15.09
2023-04-19T14:50:13.534Z,15.29
2023-04-19T14:52:41.593Z,15.30
2023-04-19T14:55:11.348Z,15.29
2023-04-19T14:57:39.176Z,15.33
2023-04-19T15:00:09.054Z,15.04
2023-04-19T15:02:37.456Z,15.26
2023-04-19T15:05:07.944Z,15.05
2023-04-19T15:07:36.371Z,15.18
2023-04-19T15:10:04.301Z,15.09
2023-04-19T15:12:32.122Z,15.02
2023-04-19T15:15:00.150Z,15.17
2023-04-19T15:17:27.913Z,15.33
2023-04-19T15:19:56.004Z,15.16
2023-04-19T15:22:25.256Z,15.26
2023-04-19T15:24:53.523Z,15.25
2023-04-19T15:27:21.511Z,15.13
2023-04-19T15:29:49.179Z,15.02
2023-04-19T15:32:17.304Z,14.98
2023-04-19T15:34:45.190Z,15.10
2023-04-19T15:37:13.082Z,15.29
2023-04-19T15:39:43.550Z,14.87
2023-04-19T15:42:11.528Z,15.01
2023-04-19T15:44:39.271Z,15.07
2023-04-19T15:47:07.121Z,15.07
2023-04-19T15:49:34.955Z,14.99
2023-04-19T15:52:02.823Z,15.15
2023-04-19T15:54:30.820Z,15.08
2023-04-19T15:57:00.105Z,15.10
2023-04-19T15:59:27.938Z,14.98
2023-04-19T16:01:55.996Z,14.92
2023-04-19T16:04:24.241Z,14.96
2023-04-19T16:06:52.306Z,14.87
2023-04-19T16:09:20.252Z,14.70
2023-04-19T16:11:48.133Z,15.01
2023-04-19T16:14:17.309Z,14.89
2023-04-19T16:16:45.425Z,14.88
2023-04-19T16:19:13.242Z,14.77
2023-04-19T16:21:41.347Z,14.79
2023-04-19T16:24:09.210Z,14.77
2023-04-19T16:26:36.960Z,14.55
2023-04-19T16:29:04.808Z,14.74
2023-04-19T16:31:35.756Z,14.64
2023-04-19T16:34:03.562Z,14.43
2023-04-19T16:36:31.579Z,14.36
2023-04-19T16:38:59.322Z,14.32
2023-04-19T16:41:27.851Z,14.46
2023-04-19T16:43:56.328Z,14.43
2023-04-19T16:46:24.243Z,14.56
2023-04-19T16:48:53.461Z,14.54
2023-04-19T16:51:22.141Z,14.55
2023-04-19T16:53:50.021Z,14.53
2023-04-19T16:56:19.412Z,14.37
2023-04-19T16:58:47.708Z,14.39
2023-04-19T17:01:16.096Z,14.55
2023-04-19T17:03:44.039Z,14.23
2023-04-19T17:06:13.532Z,14.45
2023-04-19T17:08:41.440Z,14.59
2023-04-19T17:11:09.256Z,14.27
2023-04-19T17:13:37.756Z,14.21
2023-04-19T17:16:06.738Z,14.25
2023-04-19T17:18:34.565Z,14.01
2023-04-19T17:21:02.441Z,13.94
2023-04-19T17:23:31.893Z,14.10
2023-04-19T17:26:00.227Z,14.10
2023-04-19T17:28:28.306Z,13.98
2023-04-19T17:30:56.526Z,13.91
2023-04-19T17:33:24.335Z,14.11
2023-04-19T17:35:52.270Z,14.27
2023-04-19T17:38:20.024Z,13.81
2023-04-19T17:40:49.279Z,13.74
2023-04-19T17:43:17.059Z,13.75
2023-04-19T17:45:44.806Z,13.85
2023-04-19T17:48:12.696Z,13.78
2023-04-19T17:50:40.966Z,13.50
2023-04-19T17:53:08.899Z,13.51
2023-04-19T17:55:36.702Z,13.68
2023-04-19T17:58:05.965Z,13.47
2023-04-19T18:00:33.952Z,13.32
2023-04-19T18:03:01.867Z,13.32
2023-04-19T18:05:29.796Z,13.23
2023-04-19T18:07:57.593Z,13.48
2023-04-19T18:10:25.875Z,13.14
2023-04-19T18:12:53.754Z,13.22
2023-04-19T18:15:23.217Z,13.17
2023-04-19T18:17:51.129Z,13.06
2023-04-19T18:20:19.740Z,12.82
2023-04-19T18:22:50.221Z,13.17
2023-04-19T18:25:18.163Z,12.80
2023-04-19T18:27:46.156Z,12.80
2023-04-19T18:30:14.952Z,12.78
2023-04-19T18:32:44.257Z,12.64
2023-04-19T18:35:12.219Z,12.60
2023-04-19T18:37:40.044Z,12.75
2023-04-19T18:40:09.502Z,12.31
2023-04-19T18:42:37.426Z,12.45
2023-04-19T18:45:06.076Z,12.34
2023-04-19T18:47:34.070Z,12.28
2023-04-19T18:50:06.154Z,12.36
2023-04-19T18:52:35.301Z,12.50
2023-04-19T18:55:03.284Z,12.38
2023-04-19T18:57:34.616Z,12.33
2023-04-19T19:00:05.567Z,12.33
2023-04-19T19:02:37.149Z,12.27
2023-04-19T19:05:08.544Z,12.07
2023-04-19T19:07:38.096Z,12.41
2023-04-19T19:10:19.114Z,12.29
2023-04-19T19:12:50.224Z,12.14
2023-04-19T19:15:18.590Z,12.05
2023-04-19T19:17:49.724Z,11.90
2023-04-19T19:20:19.939Z,11.91
2023-04-19T19:22:48.195Z,12.02
2023-04-19T19:25:16.318Z,11.83
2023-04-19T19:27:58.332Z,11.89
2023-04-19T19:30:33.717Z,11.80
2023-04-19T19:33:02.399Z,11.91
2023-04-19T19:35:31.667Z,11.82
2023-04-19T19:37:59.491Z,11.72
2023-04-19T19:40:31.184Z,11.64
2023-04-19T19:43:00.236Z,11.71
2023-04-19T19:45:28.717Z,11.69
2023-04-19T19:47:58.805Z,11.65
2023-04-19T19:51:02.045Z,11.58
2023-04-19T19:53:18.823Z,11.61
2023-04-19T19:55:47.487Z,11.54
2023-04-19T19:58:32.687Z,11.51
2023-04-19T20:01:03.785Z,11.30
2023-04-19T20:03:37.604Z,11.31
2023-04-19T20:08:43.807Z,11.44
2023-04-19T20:11:12.213Z,11.57
2023-04-19T20:13:40.023Z,11.49
2023-04-19T20:16:10.277Z,11.44
2023-04-19T20:18:38.750Z,11.35
2023-04-19T20:21:06.570Z,11.36
2023-04-19T20:23:34.377Z,11.15
2023-04-19T20:26:03.630Z,11.10
2023-04-19T20:28:31.414Z,11.18
2023-04-19T20:30:59.331Z,11.14
2023-04-19T20:33:28.298Z,11.20
2023-04-19T20:36:00.255Z,11.03
2023-04-19T20:38:28.252Z,11.04
2023-04-19T20:40:56.384Z,11.03
2023-04-19T20:43:26.134Z,11.15
2023-04-19T20:45:53.949Z,11.20
2023-04-19T20:48:22.066Z,11.30
2023-04-19T20:50:50.248Z,11.14
2023-04-19T20:53:18.066Z,11.18
2023-04-19T20:55:46.019Z,11.00
2023-04-19T20:58:13.885Z,10.94
2023-04-19T21:00:43.360Z,11.08
2023-04-19T21:03:11.383Z,10.94
2023-04-19T21:05:39.370Z,10.83
2023-04-19T21:08:07.299Z,11.01
2023-04-19T21:10:35.358Z,10.58
2023-04-19T21:13:03.158Z,10.75
2023-04-19T21:15:31.157Z,10.95
2023-04-19T21:18:00.467Z,10.92
2023-04-19T21:20:28.645Z,10.57
2023-04-19T21:22:56.413Z,10.72
2023-04-19T21:25:24.470Z,10.58
2023-04-19T21:27:52.333Z,10.68
2023-04-19T21:30:21.930Z,10.53
2023-04-19T21:32:50.820Z,10.34
2023-04-19T21:35:20.359Z,10.78
2023-04-19T21:37:48.493Z,10.42
2023-04-19T21:40:16.308Z,10.41
2023-04-19T21:42:44.128Z,10.64
2023-04-19T21:45:12.801Z,10.29
2023-04-19T21:47:40.779Z,10.39
2023-04-19T21:50:10.519Z,10.09
2023-04-19T21:52:39.951Z,10.07
2023-04-19T21:55:09.013Z,10.11
2023-04-19T21:57:38.268Z,10.10
2023-04-19T22:00:09.235Z,10.27
2023-04-19T22:02:37.400Z,10.05
2023-04-19T22:05:07.324Z,10.07
2023-04-19T22:07:37.282Z,10.04
2023-04-19T22:10:08.099Z,10.22
2023-04-19T22:12:40.614Z,10.16
2023-04-19T22:15:16.093Z,10.13
2023-04-19T22:17:44.598Z,10.05
2023-04-19T22:20:14.759Z,10.17
2023-04-19T22:22:42.755Z,9.95
2023-04-19T22:25:12.246Z,9.93
2023-04-19T22:27:40.160Z,10.10
2023-04-19T22:30:09.303Z,9.88
2023-04-19T22:32:37.253Z,9.87
2023-04-19T22:35:05.832Z,9.94
2023-04-19T22:37:33.628Z,9.89
2023-04-19T22:40:01.794Z,9.92
2023-04-19T22:42:30.904Z,9.71
2023-04-19T22:44:59.017Z,9.82
2023-04-19T22:47:26.968Z,10.12
2023-04-19T22:49:55.417Z,9.82
2023-04-19T22:52:23.773Z,9.82
2023-04-19T22:54:51.568Z,9.64
2023-04-19T22:57:20.147Z,9.78
2023-04-19T22:59:49.647Z,9.72
2023-04-19T23:02:17.504Z,9.69
2023-04-19T23:04:45.389Z,9.74
2023-04-19T23:07:13.540Z,9.80
2023-04-19T23:09:41.222Z,10.00
2023-04-19T23:12:09.104Z,9.76
2023-04-19T23:14:38.513Z,9.75
2023-04-19T23:17:08.451Z,9.69
2023-04-19T23:19:36.635Z,9.54
2023-04-19T23:22:04.734Z,9.78
2023-04-19T23:24:32.447Z,9.97
2023-04-19T23:27:00.295Z,9.81
2023-04-19T23:29:28.052Z,9.71
2023-04-19T23:31:56.242Z,9.64
2023-04-19T23:34:25.494Z,9.38
2023-04-19T23:36:53.340Z,9.50
2023-04-19T23:39:21.491Z,9.64
2023-04-19T23:41:49.860Z,9.50
2023-04-19T23:44:17.566Z,9.53
2023-04-19T23:46:45.445Z,9.36
2023-04-19T23:49:13.264Z,9.46
2023-04-19T23:51:42.757Z,9.63
2023-04-19T23:54:10.571Z,9.45
2023-04-19T23:56:38.343Z,9.26
2023-04-19T23:59:06.165Z,9.54
